createdAt,value
2023-02-11T00:02:46.834Z,99019.84
2023-02-11T00:05:33.478Z,99011.44
2023-02-11T00:08:19.253Z,99007.97
2023-02-11T00:11:05.153Z,99010.59
2023-02-11T00:13:50.570Z,99001.09
2023-02-11T00:16:36.322Z,99003.25
2023-02-11T00:19:21.975Z,99010.63
2023-02-11T00:22:08.437Z,99007.81
2023-02-11T00:24:54.505Z,99000.72
2023-02-11T00:27:40.065Z,99003.69
2023-02-11T00:30:26.224Z,98996.22
2023-02-11T00:33:12.325Z,98997.19
2023-02-11T00:35:57.929Z,98995.28
2023-02-11T00:38:44.978Z,98996.69
2023-02-11T00:41:31.531Z,98982.69
2023-02-11T00:44:17.817Z,98993.13
2023-02-11T00:47:06.680Z,98987.09
2023-02-11T00:49:52.771Z,98995.06
2023-02-11T00:52:38.588Z,98998.16
2023-02-11T00:55:24.241Z,99002.44
2023-02-11T00:58:10.097Z,98989.88
2023-02-11T01:00:56.178Z,98981.59
2023-02-11T01:03:43.211Z,98982.53
2023-02-11T01:06:28.981Z,98979.22
2023-02-11T01:09:14.437Z,98979.59
2023-02-11T01:12:00.101Z,98967.84
2023-02-11T01:14:45.889Z,98968.78
2023-02-11T01:17:31.439Z,98965.47
2023-02-11T01:20:23.185Z,98958.63
2023-02-11T01:23:08.796Z,98953.16
2023-02-11T01:25:55.283Z,98954.06
2023-02-11T01:28:41.435Z,98953.22
2023-02-11T01:31:27.668Z,98954.88
2023-02-11T01:34:12.943Z,98939.38
2023-02-11T01:36:59.551Z,98936.91
2023-02-11T01:39:47.692Z,98930.59
2023-02-11T01:42:33.852Z,98924.31
2023-02-11T01:45:50.225Z,98919.09
2023-02-11T01:48:41.354Z,98907.94
2023-02-11T01:51:41.750Z,98898.47
2023-02-11T01:54:53.613Z,98896.19
2023-02-11T01:57:43.602Z,98899.97
2023-02-11T02:00:38.981Z,98906.00
2023-02-11T02:03:24.959Z,98906.13
2023-02-11T02:06:19.643Z,98906.25
2023-02-11T02:09:10.041Z,98909.69
2023-02-11T02:11:56.307Z,98905.78
2023-02-11T02:14:44.135Z,98908.47
2023-02-11T02:17:43.820Z,98908.97
2023-02-11T02:21:06.298Z,98902.59
2023-02-11T02:24:16.579Z,98909.75
2023-02-11T02:27:30.295Z,98904.56
2023-02-11T02:30:28.161Z,98906.00
2023-02-11T02:33:32.654Z,98916.91
2023-02-11T02:36:28.413Z,98914.78
2023-02-11T02:39:36.119Z,98904.84
2023-02-11T02:42:22.828Z,98893.69
2023-02-11T02:45:10.997Z,98883.59
2023-02-11T02:47:56.976Z,98868.78
2023-02-11T02:50:43.439Z,98860.91
2023-02-11T02:53:50.247Z,98857.69
2023-02-11T02:57:03.637Z,98857.75
2023-02-11T03:00:15.153Z,98858.22
2023-02-11T03:03:13.063Z,98859.38
2023-02-11T03:06:09.716Z,98852.81
2023-02-11T03:09:11.081Z,98871.66
2023-02-11T03:11:57.271Z,98874.97
2023-02-11T03:14:46.645Z,98874.63
2023-02-11T03:17:35.632Z,98871.59
2023-02-11T03:20:23.396Z,98862.00
2023-02-11T03:23:17.200Z,98868.03
2023-02-11T03:26:11.761Z,98858.44
2023-02-11T03:29:15.612Z,98876.72
2023-02-11T03:32:23.162Z,98864.34
2023-02-11T03:35:17.347Z,98865.88
2023-02-11T03:38:43.093Z,98866.56
2023-02-11T03:41:31.590Z,98862.06
2023-02-11T03:44:17.344Z,98854.81
2023-02-11T03:47:05.201Z,98864.88
2023-02-11T03:49:53.904Z,98846.34
2023-02-11T03:52:40.308Z,98857.47
2023-02-11T03:55:28.350Z,98852.38
2023-02-11T03:58:13.938Z,98848.94
2023-02-11T04:01:00.275Z,98842.06
2023-02-11T04:03:45.868Z,98844.81
2023-02-11T04:06:31.541Z,98830.09
2023-02-11T04:09:17.376Z,98818.84
2023-02-11T04:12:03.472Z,98824.88
2023-02-11T04:14:49.518Z,98830.22
2023-02-11T04:17:35.550Z,98829.28
2023-02-11T04:20:21.507Z,98825.97
2023-02-11T04:23:07.748Z,98811.13
2023-02-11T04:25:53.307Z,98812.91
2023-02-11T04:28:39.602Z,98809.34
2023-02-11T04:31:25.781Z,98806.75
2023-02-11T04:34:11.569Z,98807.97
2023-02-11T04:36:57.416Z,98795.50
2023-02-11T04:39:43.166Z,98783.16
2023-02-11T04:42:29.012Z,98780.41
2023-02-11T04:45:14.810Z,98785.63
2023-02-11T04:48:02.503Z,98783.00
2023-02-11T04:50:48.261Z,98782.06
2023-02-11T04:53:33.903Z,98788.00
2023-02-11T04:56:19.233Z,98789.09
2023-02-11T04:59:06.217Z,98792.63
2023-02-11T05:01:51.755Z,98785.75
2023-02-11T05:04:37.592Z,98794.94
2023-02-11T05:07:23.127Z,98782.44
2023-02-11T05:10:09.205Z,98787.56
2023-02-11T05:12:56.096Z,98780.53
2023-02-11T05:15:41.605Z,98768.72
2023-02-11T05:18:27.297Z,98762.09
2023-02-11T05:21:16.661Z,98771.31
2023-02-11T05:24:04.182Z,98759.66
2023-02-11T05:26:50.075Z,98784.03
2023-02-11T05:29:35.781Z,98762.34
2023-02-11T05:32:21.924Z,98780.94
2023-02-11T05:35:08.720Z,98774.34
2023-02-11T05:37:54.643Z,98766.34
2023-02-11T05:40:40.560Z,98747.97
2023-02-11T05:43:26.199Z,98736.41
2023-02-11T05:46:11.808Z,98726.53
2023-02-11T05:48:57.624Z,98736.13
2023-02-11T05:51:43.478Z,98734.22
2023-02-11T05:54:29.239Z,98741.09
2023-02-11T05:57:15.400Z,98744.41
2023-02-11T06:00:00.649Z,98742.63
2023-02-11T06:02:46.272Z,98759.81
2023-02-11T06:05:32.726Z,98757.06
2023-02-11T06:08:18.942Z,98762.03
2023-02-11T06:11:08.135Z,98769.72
2023-02-11T06:13:53.743Z,98758.44
2023-02-11T06:16:39.556Z,98746.19
2023-02-11T06:19:24.794Z,98745.09
2023-02-11T06:22:10.609Z,98733.44
2023-02-11T06:25:01.735Z,98727.91
2023-02-11T06:27:47.876Z,98739.06
2023-02-11T06:30:33.460Z,98741.41
2023-02-11T06:33:19.101Z,98737.56
2023-02-11T06:36:12.213Z,98715.41
2023-02-11T06:38:58.117Z,98725.31
2023-02-11T06:41:43.903Z,98718.03
2023-02-11T06:44:29.622Z,98724.50
2023-02-11T06:47:15.348Z,98726.72
2023-02-11T06:50:00.835Z,98715.81
2023-02-11T06:52:46.256Z,98715.56
2023-02-11T06:55:32.070Z,98724.09
2023-02-11T06:58:17.540Z,98713.63
2023-02-11T07:01:12.713Z,98697.78
2023-02-11T07:03:58.631Z,98714.16
2023-02-11T07:06:44.053Z,98732.19
2023-02-11T07:09:29.805Z,98736.47
2023-02-11T07:12:15.260Z,98731.78
2023-02-11T07:15:00.750Z,98727.38
2023-02-11T07:17:46.361Z,98719.38
2023-02-11T07:20:32.235Z,98724.47
2023-02-11T07:23:17.840Z,98711.94
2023-02-11T07:26:10.583Z,98702.16
2023-02-11T07:28:56.762Z,98711.66
2023-02-11T07:31:42.591Z,98716.63
2023-02-11T07:34:28.428Z,98712.19
2023-02-11T07:37:14.193Z,98712.06
2023-02-11T07:39:59.917Z,98728.44
2023-02-11T07:42:45.711Z,98742.38
2023-02-11T07:45:31.433Z,98744.84
2023-02-11T07:48:17.026Z,98750.75
2023-02-11T07:51:23.172Z,98761.91
2023-02-11T07:54:10.646Z,98764.91
2023-02-11T07:56:56.232Z,98768.22
2023-02-11T07:59:41.715Z,98767.97
2023-02-11T08:02:27.259Z,98783.38
2023-02-11T08:05:13.059Z,98789.16
2023-02-11T08:07:58.799Z,98797.56
2023-02-11T08:10:44.373Z,98790.41
2023-02-11T08:13:30.055Z,98781.28
2023-02-11T08:16:25.423Z,98792.56
2023-02-11T08:19:14.516Z,98794.91
2023-02-11T08:22:01.351Z,98789.53
2023-02-11T08:24:46.933Z,98782.53
2023-02-11T08:27:33.006Z,98778.78
2023-02-11T08:30:18.788Z,98794.06
2023-02-11T08:33:04.286Z,98793.94
2023-02-11T08:35:50.034Z,98799.84
2023-02-11T08:38:35.780Z,98807.69
2023-02-11T08:41:21.013Z,98804.09
2023-02-11T08:44:06.699Z,98811.00
2023-02-11T08:46:52.695Z,98812.66
2023-02-11T08:49:38.578Z,98827.41
2023-02-11T08:52:24.523Z,98828.91
2023-02-11T08:55:11.158Z,98830.56
2023-02-11T08:57:57.359Z,98816.38
2023-02-11T09:00:46.136Z,98819.69
2023-02-11T09:03:34.908Z,98811.66
2023-02-11T09:06:22.877Z,98799.69
2023-02-11T09:09:13.722Z,98791.28
2023-02-11T09:12:01.233Z,98789.78
2023-02-11T09:14:48.103Z,98796.94
2023-02-11T09:17:34.015Z,98796.94
2023-02-11T09:20:19.784Z,98802.44
2023-02-11T09:23:05.873Z,98802.59
2023-02-11T09:26:09.798Z,98797.22
2023-02-11T09:28:56.026Z,98797.50
2023-02-11T09:31:42.165Z,98789.13
2023-02-11T09:34:27.893Z,98811.03
2023-02-11T09:37:13.440Z,98799.44
2023-02-11T09:39:59.347Z,98793.78
2023-02-11T09:43:01.735Z,98788.81
2023-02-11T09:45:50.173Z,98775.16
2023-02-11T09:48:42.082Z,98774.56
2023-02-11T09:51:43.295Z,98779.50
2023-02-11T09:54:36.498Z,98780.88
2023-02-11T09:57:29.028Z,98782.25
2023-02-11T10:00:29.410Z,98774.06
2023-02-11T10:04:05.838Z,98777.09
2023-02-11T10:07:07.766Z,98780.13
2023-02-11T10:10:04.956Z,98794.03
2023-02-11T10:13:23.359Z,98791.28
2023-02-11T10:16:49.901Z,98800.13
2023-02-11T10:20:00.447Z,98793.91
2023-02-11T10:22:50.282Z,98804.78
2023-02-11T10:25:45.437Z,98813.19
2023-02-11T10:28:34.479Z,98819.63
2023-02-11T10:31:28.808Z,98820.31
2023-02-11T10:34:15.223Z,98815.59
2023-02-11T10:37:01.234Z,98807.44
2023-02-11T10:39:49.823Z,98793.22
2023-02-11T10:42:36.217Z,98796.94
2023-02-11T10:45:27.261Z,98793.66
2023-02-11T10:48:37.493Z,98785.94
2023-02-11T10:51:28.784Z,98778.09
2023-02-11T10:54:24.588Z,98786.75
2023-02-11T10:57:20.074Z,98789.53
2023-02-11T11:00:27.505Z,98780.00
2023-02-11T11:03:22.926Z,98782.91
2023-02-11T11:06:09.853Z,98786.66
2023-02-11T11:08:55.464Z,98783.22
2023-02-11T11:11:53.858Z,98796.47
2023-02-11T11:14:39.284Z,98789.44
2023-02-11T11:17:29.372Z,98787.78
2023-02-11T11:20:14.855Z,98786.81
2023-02-11T11:23:17.495Z,98785.69
2023-02-11T11:26:09.997Z,98781.78
2023-02-11T11:29:09.724Z,98776.56
2023-02-11T11:31:59.537Z,98768.84
2023-02-11T11:34:52.843Z,98768.31
2023-02-11T11:37:39.562Z,98763.22
2023-02-11T11:40:31.185Z,98770.94
2023-02-11T11:43:23.044Z,98757.00
2023-02-11T11:46:12.426Z,98764.72
2023-02-11T11:49:18.145Z,98764.56
2023-02-11T11:52:41.650Z,98756.44
2023-02-11T11:55:35.598Z,98752.84
2023-02-11T11:58:23.322Z,98751.13
2023-02-11T12:01:27.476Z,98748.28
2023-02-11T12:04:40.068Z,98766.72
2023-02-11T12:07:28.435Z,98778.56
2023-02-11T12:10:35.393Z,98775.66
2023-02-11T12:13:38.834Z,98762.09
2023-02-11T12:16:27.391Z,98763.44
2023-02-11T12:19:22.322Z,98764.13
2023-02-11T12:22:12.874Z,98752.50
2023-02-11T12:25:07.823Z,98739.81
2023-02-11T12:28:07.773Z,98751.13
2023-02-11T12:31:13.403Z,98759.41
2023-02-11T12:34:15.816Z,98773.00
2023-02-11T12:37:23.035Z,98765.47
2023-02-11T12:40:28.747Z,98761.34
2023-02-11T12:43:24.056Z,98751.66
2023-02-11T12:46:30.814Z,98742.81
2023-02-11T12:49:30.109Z,98741.03
2023-02-11T12:52:38.787Z,98744.47
2023-02-11T12:55:26.077Z,98740.88
2023-02-11T12:58:35.615Z,98743.34
2023-02-11T13:01:39.482Z,98732.84
2023-02-11T13:04:54.190Z,98736.00
2023-02-11T13:07:45.320Z,98739.31
2023-02-11T13:10:38.735Z,98723.56
2023-02-11T13:13:24.476Z,98716.50
2023-02-11T13:16:24.054Z,98713.72
2023-02-11T13:19:12.811Z,98718.00
2023-02-11T13:22:17.376Z,98718.88
2023-02-11T13:25:50.555Z,98711.06
2023-02-11T13:28:50.540Z,98720.13
2023-02-11T13:31:36.374Z,98725.59
2023-02-11T13:34:46.210Z,98724.44
2023-02-11T13:37:38.921Z,98720.03
2023-02-11T13:40:27.572Z,98724.91
2023-02-11T13:43:23.597Z,98729.34
2023-02-11T13:46:13.401Z,98731.16
2023-02-11T13:48:59.659Z,98734.75
2023-02-11T13:51:45.665Z,98734.91
2023-02-11T13:54:36.008Z,98734.53
2023-02-11T13:57:23.477Z,98735.66
2023-02-11T14:00:33.937Z,98745.63
2023-02-11T14:03:47.004Z,98748.44
2023-02-11T14:06:51.291Z,98742.66
2023-02-11T14:09:40.267Z,98736.06
2023-02-11T14:12:33.479Z,98733.09
2023-02-11T14:15:22.122Z,98733.38
2023-02-11T14:18:47.220Z,98733.66
2023-02-11T14:21:37.001Z,98726.63
2023-02-11T14:24:25.861Z,98735.47
2023-02-11T14:27:16.302Z,98726.78
2023-02-11T14:30:07.790Z,98724.00
2023-02-11T14:33:18.221Z,98718.75
2023-02-11T14:36:27.128Z,98715.97
2023-02-11T14:40:02.690Z,98729.78
2023-02-11T14:42:48.553Z,98730.59
2023-02-11T14:45:37.042Z,98728.13
2023-02-11T14:48:37.004Z,98728.94
2023-02-11T14:51:31.681Z,98726.19
2023-02-11T14:54:25.382Z,98725.22
2023-02-11T14:57:17.015Z,98727.84
2023-02-11T15:00:13.879Z,98742.75
2023-02-11T15:02:59.788Z,98732.56
2023-02-11T15:05:45.768Z,98734.19
2023-02-11T15:08:33.557Z,98736.97
2023-02-11T15:11:22.539Z,98735.31
2023-02-11T15:14:16.778Z,98733.66
2023-02-11T15:17:09.084Z,98729.53
2023-02-11T15:19:58.835Z,98736.44
2023-02-11T15:22:46.704Z,98742.81
2023-02-11T15:25:34.156Z,98748.06
2023-02-11T15:28:29.395Z,98744.75
2023-02-11T15:31:17.423Z,98747.38
2023-02-11T15:34:08.132Z,98737.03
2023-02-11T15:36:54.394Z,98743.94
2023-02-11T15:39:42.568Z,98741.47
2023-02-11T15:42:35.814Z,98737.19
2023-02-11T15:45:29.668Z,98732.75
2023-02-11T15:48:37.338Z,98735.38
2023-02-11T15:51:29.089Z,98730.31
2023-02-11T15:54:21.324Z,98730.47
2023-02-11T15:57:10.472Z,98725.22
2023-02-11T15:59:56.988Z,98728.66
2023-02-11T16:02:46.696Z,98725.38
2023-02-11T16:05:37.961Z,98730.09
2023-02-11T16:08:29.937Z,98732.19
2023-02-11T16:11:25.300Z,98733.44
2023-02-11T16:14:37.228Z,98739.81
2023-02-11T16:17:27.895Z,98748.81
2023-02-11T16:20:20.338Z,98743.88
2023-02-11T16:23:07.960Z,98757.13
2023-02-11T16:26:22.352Z,98756.47
2023-02-11T16:29:22.436Z,98763.31
2023-02-11T16:32:13.903Z,98768.72
2023-02-11T16:35:01.513Z,98767.91
2023-02-11T16:37:47.391Z,98784.47
2023-02-11T16:40:33.584Z,98782.69
2023-02-11T16:43:20.207Z,98781.84
2023-02-11T16:46:06.077Z,98779.22
2023-02-11T16:48:51.271Z,98769.56
2023-02-11T16:51:39.994Z,98776.59
2023-02-11T16:54:25.797Z,98773.97
2023-02-11T16:57:20.339Z,98767.91
2023-02-11T17:00:07.580Z,98769.69
2023-02-11T17:02:53.021Z,98771.34
2023-02-11T17:05:54.432Z,98770.53
2023-02-11T17:08:41.925Z,98780.88
2023-02-11T17:11:27.378Z,98783.34
2023-02-11T17:14:13.068Z,98800.72
2023-02-11T17:16:59.188Z,98800.56
2023-02-11T17:19:45.300Z,98803.19
2023-02-11T17:22:31.110Z,98815.06
2023-02-11T17:25:17.441Z,98815.88
2023-02-11T17:28:04.649Z,98811.47
2023-02-11T17:30:50.515Z,98813.09
2023-02-11T17:33:37.836Z,98822.34
2023-02-11T17:36:23.535Z,98827.59
2023-02-11T17:39:09.503Z,98834.47
2023-02-11T17:41:55.180Z,98834.59
2023-02-11T17:44:41.054Z,98839.03
2023-02-11T17:47:26.797Z,98833.78
2023-02-11T17:50:12.595Z,98843.31
2023-02-11T17:52:58.255Z,98840.69
2023-02-11T17:55:43.802Z,98851.19
2023-02-11T17:58:29.676Z,98844.97
2023-02-11T18:01:15.571Z,98838.06
2023-02-11T18:04:01.828Z,98832.97
2023-02-11T18:06:47.544Z,98842.63
2023-02-11T18:09:38.266Z,98835.59
2023-02-11T18:12:27.478Z,98836.56
2023-02-11T18:15:13.414Z,98842.09
2023-02-11T18:17:58.953Z,98840.44
2023-02-11T18:20:46.921Z,98844.03
2023-02-11T18:23:32.765Z,98841.41
2023-02-11T18:26:20.761Z,98844.19
2023-02-11T18:29:07.120Z,98836.31
2023-02-11T18:31:55.661Z,98854.53
2023-02-11T18:34:41.921Z,98848.47
2023-02-11T18:37:27.609Z,98851.91
2023-02-11T18:40:15.369Z,98846.81
2023-02-11T18:43:01.062Z,98847.50
2023-02-11T18:45:48.666Z,98841.28
2023-02-11T18:48:34.642Z,98846.53
2023-02-11T18:51:20.083Z,98842.25
2023-02-11T18:54:05.968Z,98838.66
2023-02-11T18:56:51.392Z,98841.28
2023-02-11T18:59:37.150Z,98856.06
2023-02-11T19:02:25.021Z,98856.06
2023-02-11T19:05:11.533Z,98845.41
2023-02-11T19:07:57.442Z,98856.72
2023-02-11T19:10:45.474Z,98851.34
2023-02-11T19:13:31.621Z,98849.38
2023-02-11T19:16:20.042Z,98863.03
2023-02-11T19:19:06.154Z,98854.19
2023-02-11T19:21:52.164Z,98854.03
2023-02-11T19:24:38.743Z,98848.78
2023-02-11T19:27:24.664Z,98852.25
2023-02-11T19:30:11.046Z,98845.03
2023-02-11T19:32:57.961Z,98852.91
2023-02-11T19:35:43.796Z,98848.34
2023-02-11T19:38:29.812Z,98851.66
2023-02-11T19:41:22.529Z,98842.81
2023-02-11T19:44:09.670Z,98851.34
2023-02-11T19:46:55.766Z,98864.03
2023-02-11T19:49:41.427Z,98855.03
2023-02-11T19:52:27.436Z,98853.91
2023-02-11T19:55:13.417Z,98849.34
2023-02-11T19:57:59.383Z,98844.78
2023-02-11T20:00:44.871Z,98843.50
2023-02-11T20:03:30.461Z,98844.19
2023-02-11T20:06:19.037Z,98844.03
2023-02-11T20:09:07.940Z,98854.22
2023-02-11T20:11:53.355Z,98852.13
2023-02-11T20:14:38.639Z,98851.00
2023-02-11T20:17:25.669Z,98855.81
2023-02-11T20:20:12.923Z,98858.31
2023-02-11T20:22:58.880Z,98853.53
2023-02-11T20:25:44.233Z,98848.44
2023-02-11T20:28:29.843Z,98852.72
2023-02-11T20:31:16.430Z,98864.03
2023-02-11T20:34:02.307Z,98864.88
2023-02-11T20:36:54.406Z,98869.28
2023-02-11T20:39:42.021Z,98868.50
2023-02-11T20:42:28.061Z,98871.28
2023-02-11T20:45:14.128Z,98864.38
2023-02-11T20:47:59.814Z,98874.06
2023-02-11T20:50:48.209Z,98875.03
2023-02-11T20:53:39.048Z,98885.53
2023-02-11T20:56:28.973Z,98888.97
2023-02-11T20:59:14.922Z,98889.94
2023-02-11T21:02:01.702Z,98881.41
2023-02-11T21:04:47.285Z,98897.28
2023-02-11T21:07:32.930Z,98886.78
2023-02-11T21:10:19.049Z,98885.13
2023-02-11T21:13:04.902Z,98881.69
2023-02-11T21:15:57.091Z,98876.59
2023-02-11T21:18:44.119Z,98880.34
2023-02-11T21:21:30.421Z,98887.69
2023-02-11T21:24:15.890Z,98890.47
2023-02-11T21:27:02.082Z,98901.78
2023-02-11T21:29:54.105Z,98910.63
2023-02-11T21:32:40.897Z,98912.56
2023-02-11T21:35:26.646Z,98917.00
2023-02-11T21:38:12.565Z,98923.06
2023-02-11T21:41:04.283Z,98903.88
2023-02-11T21:43:50.992Z,98907.31
2023-02-11T21:46:36.813Z,98902.22
2023-02-11T21:49:22.508Z,98902.38
2023-02-11T21:52:07.907Z,98911.38
2023-02-11T21:54:53.417Z,98909.72
2023-02-11T21:57:40.357Z,98902.81
2023-02-11T22:00:26.128Z,98903.78
2023-02-11T22:03:12.555Z,98898.41
2023-02-11T22:05:58.170Z,98893.16
2023-02-11T22:08:43.976Z,98901.03
2023-02-11T22:11:29.539Z,98900.03
2023-02-11T22:14:15.398Z,98898.41
2023-02-11T22:17:01.651Z,98892.16
2023-02-11T22:19:47.125Z,98896.59
2023-02-11T22:22:32.645Z,98899.38
2023-02-11T22:25:18.638Z,98905.59
2023-02-11T22:28:04.364Z,98911.66
2023-02-11T22:30:57.211Z,98921.16
2023-02-11T22:33:43.208Z,98914.25
2023-02-11T22:36:40.803Z,98920.47
2023-02-11T22:39:26.880Z,98917.84
2023-02-11T22:42:12.426Z,98919.81
2023-02-11T22:44:57.861Z,98933.75
2023-02-11T22:47:43.625Z,98935.41
2023-02-11T22:50:29.278Z,98937.06
2023-02-11T22:53:14.939Z,98936.09
2023-02-11T22:56:05.937Z,98943.66
2023-02-11T22:58:52.400Z,98942.41
2023-02-11T23:01:37.876Z,98948.31
2023-02-11T23:04:23.548Z,98941.28
2023-02-11T23:07:09.487Z,98944.59
2023-02-11T23:09:55.471Z,98949.72
2023-02-11T23:12:41.180Z,98949.56
2023-02-11T23:15:27.057Z,98955.50
2023-02-11T23:18:13.579Z,98957.13
2023-02-11T23:21:06.901Z,98951.75
2023-02-11T23:23:57.739Z,98945.50
2023-02-11T23:26:44.353Z,98945.50
2023-02-11T23:29:29.852Z,98925.63
2023-02-11T23:32:15.634Z,98930.88
2023-02-11T23:35:00.946Z,98932.69
2023-02-11T23:37:46.515Z,98934.63
2023-02-11T23:40:32.705Z,98937.25
2023-02-11T23:43:18.240Z,98940.72
2023-02-11T23:46:04.435Z,98952.03
2023-02-11T23:48:50.988Z,98945.13
2023-02-11T23:51:36.471Z,98945.13
2023-02-11T23:54:22.252Z,98946.94
2023-02-11T23:57:08.038Z,98944.59
2023-02-11T23:59:53.510Z,98946.53
